sensor_id;sensor_type;location;lat;lon;timestamp;pressure;altitude;pressure_sealevel;temperature;humidity
5988;BME280;3021;51.000;6.980;2022-09-20T00:00:41;67630.06;;;11.95;100.00
5988;BME280;3021;51.000;6.980;2022-09-20T00:03:07;67632.25;;;11.95;100.00
5988;BME280;3021;51.000;6.980;2022-09-20T00:05:34;67631.22;;;11.96;100.00
5988;BME280;3021;51.000;6.980;2022-09-20T00:08:01;67631.22;;;11.96;100.00
5988;BME280;3021;51.000;6.980;2022-09-20T00:10:27;67624.41;;;11.92;100.00
5988;BME280;3021;51.000;6.980;2022-09-20T00:12:52;67629.50;;;11.95;100.00
5988;BME280;3021;51.000;6.980;2022-09-20T00:15:17;67628.72;;;11.91;100.00
5988;BME280;3021;51.000;6.980;2022-09-20T00:17:43;67621.50;;;11.90;100.00
5988;BME280;3021;51.000;6.980;2022-09-20T00:20:08;67620.38;;;11.89;100.00
5988;BME280;3021;51.000;6.980;2022-09-20T00:22:33;67627.31;;;11.95;100.00
5988;BME280;3021;51.000;6.980;2022-09-20T00:24:59;67630.94;;;12.01;100.00
5988;BME280;3021;51.000;6.980;2022-09-20T00:27:24;67638.16;;;12.02;100.00
5988;BME280;3021;51.000;6.980;2022-09-20T00:29:49;67638.16;;;12.02;100.00
5988;BME280;3021;51.000;6.980;2022-09-20T00:32:15;67637.16;;;12.04;100.00
5988;BME280;3021;51.000;6.980;2022-09-20T00:34:40;67644.53;;;12.08;100.00
5988;BME280;3021;51.000;6.980;2022-09-20T00:37:24;67647.44;;;12.10;100.00
5988;BME280;3021;51.000;6.980;2022-09-20T00:39:49;67650.75;;;12.11;100.00
5988;BME280;3021;51.000;6.980;2022-09-20T00:42:14;67649.00;;;12.09;100.00
5988;BME280;3021;51.000;6.980;2022-09-20T00:44:44;67645.09;;;12.08;100.00
5988;BME280;3021;51.000;6.980;2022-09-20T00:50:02;67632.09;;;12.02;100.00
5988;BME280;3021;51.000;6.980;2022-09-20T00:52:30;67636.00;;;12.03;100.00
5988;BME280;3021;51.000;6.980;2022-09-20T00:54:55;67635.41;;;12.02;100.00
5988;BME280;3021;51.000;6.980;2022-09-20T00:57:22;67634.84;;;12.02;100.00
5988;BME280;3021;51.000;6.980;2022-09-20T00:59:49;67635.41;;;12.02;100.00
5988;BME280;3021;51.000;6.980;2022-09-20T01:02:23;67633.84;;;12.03;100.00
5988;BME280;3021;51.000;6.980;2022-09-20T01:04:50;67643.53;;;12.09;100.00
5988;BME280;3021;51.000;6.980;2022-09-20T01:07:19;67642.94;;;12.09;100.00
5988;BME280;3021;51.000;6.980;2022-09-20T01:09:49;67642.34;;;12.08;100.00
5988;BME280;3021;51.000;6.980;2022-09-20T01:12:18;67653.19;;;12.16;100.00
5988;BME280;3021;51.000;6.980;2022-09-20T01:14:45;67640.63;;;12.07;100.00
5988;BME280;3021;51.000;6.980;2022-09-20T01:17:12;67640.63;;;12.07;100.00
5988;BME280;3021;51.000;6.980;2022-09-20T01:22:23;67635.28;;;12.00;100.00
5988;BME280;3021;51.000;6.980;2022-09-20T01:25:07;67639.03;;;12.08;100.00
5988;BME280;3021;51.000;6.980;2022-09-20T01:27:39;67636.72;;;12.06;100.00
5988;BME280;3021;51.000;6.980;2022-09-20T01:30:08;67638.88;;;12.05;100.00
5988;BME280;3021;51.000;6.980;2022-09-20T01:35:27;67643.53;;;12.09;100.00
5988;BME280;3021;51.000;6.980;2022-09-20T01:45:40;67648.16;;;12.14;100.00
5988;BME280;3021;51.000;6.980;2022-09-20T01:56:42;67650.31;;;12.13;100.00
5988;BME280;3021;51.000;6.980;2022-09-20T02:11:01;67653.91;;;12.19;100.00
5988;BME280;3021;51.000;6.980;2022-09-20T02:13:50;67661.91;;;12.23;100.00
5988;BME280;3021;51.000;6.980;2022-09-20T02:16:21;67665.38;;;12.26;100.00
5988;BME280;3021;51.000;6.980;2022-09-20T02:22:09;67661.31;;;12.23;100.00
5988;BME280;3021;51.000;6.980;2022-09-20T02:24:52;67657.41;;;12.22;100.00
5988;BME280;3021;51.000;6.980;2022-09-20T02:30:25;67656.81;;;12.21;100.00
5988;BME280;3021;51.000;6.980;2022-09-20T02:33:09;67662.91;;;12.22;100.00
5988;BME280;3021;51.000;6.980;2022-09-20T02:36:15;67654.50;;;12.19;100.00
5988;BME280;3021;51.000;6.980;2022-09-20T02:44:17;67653.91;;;12.19;100.00
5988;BME280;3021;51.000;6.980;2022-09-20T02:54:59;67653.78;;;12.16;100.00
5988;BME280;3021;51.000;6.980;2022-09-20T03:00:52;67653.78;;;12.16;100.00
5988;BME280;3021;51.000;6.980;2022-09-20T03:10:36;67655.69;;;12.20;100.00
5988;BME280;3021;51.000;6.980;2022-09-20T03:12:47;67659.41;;;12.19;100.00
5988;BME280;3021;51.000;6.980;2022-09-20T03:34:44;67665.38;;;12.26;100.00
5988;BME280;3021;51.000;6.980;2022-09-20T03:37:41;67661.31;;;12.23;100.00
5988;BME280;3021;51.000;6.980;2022-09-20T03:42:53;67669.28;;;12.27;100.00
5988;BME280;3021;51.000;6.980;2022-09-20T04:04:54;67649.88;;;12.15;100.00
5988;BME280;3021;51.000;6.980;2022-09-20T04:18:38;67656.25;;;12.21;100.00
5988;BME280;3021;51.000;6.980;2022-09-20T04:26:27;67651.75;;;12.19;100.00
5988;BME280;3021;51.000;6.980;2022-09-20T04:29:13;67651.03;;;12.16;100.00
5988;BME280;3021;51.000;6.980;2022-09-20T04:31:58;67651.03;;;12.16;100.00
5988;BME280;3021;51.000;6.980;2022-09-20T04:34:32;67651.03;;;12.16;100.00
5988;BME280;3021;51.000;6.980;2022-09-20T04:37:27;67650.44;;;12.16;100.00
5988;BME280;3021;51.000;6.980;2022-09-20T04:43:30;67646.41;;;12.12;100.00
5988;BME280;3021;51.000;6.980;2022-09-20T05:15:10;67642.78;;;12.06;100.00
5988;BME280;3021;51.000;6.980;2022-09-20T05:29:06;67638.31;;;12.05;100.00
5988;BME280;3021;51.000;6.980;2022-09-20T05:31:50;67640.06;;;12.06;100.00
5988;BME280;3021;51.000;6.980;2022-09-20T05:34:43;67640.63;;;12.07;100.00
5988;BME280;3021;51.000;6.980;2022-09-20T05:37:41;67646.97;;;12.13;100.00
5988;BME280;3021;51.000;6.980;2022-09-20T05:43:17;67665.50;;;12.29;100.00
5988;BME280;3021;51.000;6.980;2022-09-20T05:51:35;67674.63;;;12.35;100.00
5988;BME280;3021;51.000;6.980;2022-09-20T05:54:22;67668.38;;;12.32;100.00
5988;BME280;3021;51.000;6.980;2022-09-20T05:59:44;67671.88;;;12.35;100.00
5988;BME280;3021;51.000;6.980;2022-09-20T06:05:54;67689.09;;;12.48;100.00
5988;BME280;3021;51.000;6.980;2022-09-20T06:17:13;67689.81;;;12.51;100.00
5988;BME280;3021;51.000;6.980;2022-09-20T06:19:45;67693.84;;;12.54;100.00
5988;BME280;3021;51.000;6.980;2022-09-20T06:22:41;67704.72;;;12.61;100.00
5988;BME280;3021;51.000;6.980;2022-09-20T06:27:41;67702.97;;;12.60;100.00
5988;BME280;3021;51.000;6.980;2022-09-20T06:30:17;67708.91;;;12.68;100.00
5988;BME280;3021;51.000;6.980;2022-09-20T06:33:12;67721.50;;;12.76;100.00
5988;BME280;3021;51.000;6.980;2022-09-20T06:35:58;67732.94;;;12.84;100.00
5988;BME280;3021;51.000;6.980;2022-09-20T06:41:59;67750.00;;;13.04;100.00
5988;BME280;3021;51.000;6.980;2022-09-20T06:44:25;67753.63;;;13.10;100.00
5988;BME280;3021;51.000;6.980;2022-09-20T06:46:50;67761.59;;;13.14;100.00
5988;BME280;3021;51.000;6.980;2022-09-20T06:49:22;67761.00;;;13.14;100.00
5988;BME280;3021;51.000;6.980;2022-09-20T06:51:48;67754.63;;;13.08;100.00
5988;BME280;3021;51.000;6.980;2022-09-20T06:54:19;67763.34;;;13.16;100.00
5988;BME280;3021;51.000;6.980;2022-09-20T06:56:49;67779.97;;;13.28;100.00
5988;BME280;3021;51.000;6.980;2022-09-20T06:59:15;67792.88;;;13.42;100.00
5988;BME280;3021;51.000;6.980;2022-09-20T07:01:41;67809.69;;;13.57;100.00
5988;BME280;3021;51.000;6.980;2022-09-20T07:04:06;67820.69;;;13.67;100.00
5988;BME280;3021;51.000;6.980;2022-09-20T07:06:33;67836.34;;;13.81;100.00
5988;BME280;3021;51.000;6.980;2022-09-20T07:08:59;67840.38;;;13.85;100.00
5988;BME280;3021;51.000;6.980;2022-09-20T07:11:24;67849.09;;;13.92;100.00
5988;BME280;3021;51.000;6.980;2022-09-20T07:13:51;67856.03;;;13.98;100.00
5988;BME280;3021;51.000;6.980;2022-09-20T07:16:18;67876.91;;;14.17;100.00
5988;BME280;3021;51.000;6.980;2022-09-20T07:18:44;67896.59;;;14.34;100.00
5988;BME280;3021;51.000;6.980;2022-09-20T07:21:10;67929.81;;;14.66;100.00
5988;BME280;3021;51.000;6.980;2022-09-20T07:23:36;67955.59;;;14.84;100.00
5988;BME280;3021;51.000;6.980;2022-09-20T07:26:01;67961.13;;;14.94;100.00
5988;BME280;3021;51.000;6.980;2022-09-20T07:28:28;67970.84;;;15.00;100.00
5988;BME280;3021;51.000;6.980;2022-09-20T07:30:53;67988.97;;;15.19;100.00
5988;BME280;3021;51.000;6.980;2022-09-20T07:33:19;68009.25;;;15.37;100.00
5988;BME280;3021;51.000;6.980;2022-09-20T07:35:48;68021.31;;;15.45;100.00
5988;BME280;3021;51.000;6.980;2022-09-20T07:38:14;68025.94;;;15.49;100.00
5988;BME280;3021;51.000;6.980;2022-09-20T07:40:41;68033.34;;;15.53;100.00
5988;BME280;3021;51.000;6.980;2022-09-20T07:43:07;68043.34;;;15.65;100.00
5988;BME280;3021;51.000;6.980;2022-09-20T07:45:32;68058.13;;;15.83;100.00
5988;BME280;3021;51.000;6.980;2022-09-20T07:47:59;68074.38;;;15.97;100.00
5988;BME280;3021;51.000;6.980;2022-09-20T07:50:29;68117.22;;;16.33;100.00
5988;BME280;3021;51.000;6.980;2022-09-20T07:52:55;68135.66;;;16.47;100.00
5988;BME280;3021;51.000;6.980;2022-09-20T07:55:21;68160.63;;;16.69;100.00
5988;BME280;3021;51.000;6.980;2022-09-20T07:57:46;68179.22;;;16.85;100.00
5988;BME280;3021;51.000;6.980;2022-09-20T08:00:12;68173.41;;;16.80;100.00
5988;BME280;3021;51.000;6.980;2022-09-20T08:02:38;68160.63;;;16.69;100.00
5988;BME280;3021;51.000;6.980;2022-09-20T08:05:04;68160.63;;;16.69;100.00
5988;BME280;3021;51.000;6.980;2022-09-20T08:07:29;68186.78;;;16.92;100.00
5988;BME280;3021;51.000;6.980;2022-09-20T08:09:54;68222.94;;;17.26;100.00
5988;BME280;3021;51.000;6.980;2022-09-20T08:12:20;68241.97;;;17.41;100.00
5988;BME280;3021;51.000;6.980;2022-09-20T08:14:46;68247.78;;;17.46;100.00
5988;BME280;3021;51.000;6.980;2022-09-20T08:17:12;68254.75;;;17.52;100.00
5988;BME280;3021;51.000;6.980;2022-09-20T08:19:37;68266.50;;;17.65;100.00
5988;BME280;3021;51.000;6.980;2022-09-20T08:22:04;68369.88;;;18.54;100.00
5988;BME280;3021;51.000;6.980;2022-09-20T08:24:30;68395.59;;;18.79;100.00
5988;BME280;3021;51.000;6.980;2022-09-20T08:26:56;68444.94;;;19.21;100.00
5988;BME280;3021;51.000;6.980;2022-09-20T08:29:22;68518.56;;;19.91;100.00
5988;BME280;3021;51.000;6.980;2022-09-20T08:31:48;68528.31;;;19.97;100.00
5988;BME280;3021;51.000;6.980;2022-09-20T08:34:14;68520.03;;;19.87;100.00
5988;BME280;3021;51.000;6.980;2022-09-20T08:36:41;68511.41;;;19.82;100.00
5988;BME280;3021;51.000;6.980;2022-09-20T08:39:09;68494.41;;;19.64;100.00
5988;BME280;3021;51.000;6.980;2022-09-20T08:41:39;68472.41;;;19.47;100.00
5988;BME280;3021;51.000;6.980;2022-09-20T08:46:41;68495.84;;;19.71;100.00
5988;BME280;3021;51.000;6.980;2022-09-20T08:49:14;68498.03;;;19.70;100.00
5988;BME280;3021;51.000;6.980;2022-09-20T08:51:41;68527.00;;;19.93;100.00
5988;BME280;3021;51.000;6.980;2022-09-20T08:54:10;68510.28;;;19.81;100.00
5988;BME280;3021;51.000;6.980;2022-09-20T08:56:40;68464.84;;;19.41;100.00
5988;BME280;3021;51.000;6.980;2022-09-20T08:59:13;68406.69;;;18.89;100.00
5988;BME280;3021;51.000;6.980;2022-09-20T09:01:39;68359.28;;;18.42;100.00
5988;BME280;3021;51.000;6.980;2022-09-20T09:04:15;68312.44;;;18.06;100.00
5988;BME280;3021;51.000;6.980;2022-09-20T09:06:42;68261.28;;;17.60;100.00
5988;BME280;3021;51.000;6.980;2022-09-20T09:09:16;68218.72;;;17.20;100.00
5988;BME280;3021;51.000;6.980;2022-09-20T09:11:42;68178.03;;;16.84;100.00
5988;BME280;3021;51.000;6.980;2022-09-20T09:14:24;68165.84;;;16.73;100.00
5988;BME280;3021;51.000;6.980;2022-09-20T09:17:10;68155.41;;;16.64;100.00
5988;BME280;3021;51.000;6.980;2022-09-20T09:20:15;68157.13;;;16.66;100.00
5988;BME280;3021;51.000;6.980;2022-09-20T09:22:56;68145.66;;;16.58;100.00
5988;BME280;3021;51.000;6.980;2022-09-20T09:25:25;68135.19;;;16.49;100.00
5988;BME280;3021;51.000;6.980;2022-09-20T09:30:37;68064.97;;;15.86;100.00
5988;BME280;3021;51.000;6.980;2022-09-20T09:35:52;68013.75;;;15.38;100.00
5988;BME280;3021;51.000;6.980;2022-09-20T09:38:20;68005.78;;;15.34;100.00
5988;BME280;3021;51.000;6.980;2022-09-20T09:40:55;68005.63;;;15.31;100.00
5988;BME280;3021;51.000;6.980;2022-09-20T09:43:29;67994.03;;;15.21;100.00
5988;BME280;3021;51.000;6.980;2022-09-20T09:46:16;67987.19;;;15.17;100.00
5988;BME280;3021;51.000;6.980;2022-09-20T09:48:43;67988.97;;;15.19;100.00
5988;BME280;3021;51.000;6.980;2022-09-20T09:51:16;67996.94;;;15.24;100.00
5988;BME280;3021;51.000;6.980;2022-09-20T09:53:43;68000.88;;;15.25;100.00
5988;BME280;3021;51.000;6.980;2022-09-20T10:04:26;68014.34;;;15.39;100.00
5988;BME280;3021;51.000;6.980;2022-09-20T10:10:06;68041.63;;;15.63;100.00
5988;BME280;3021;51.000;6.980;2022-09-20T10:15:40;68050.88;;;15.71;100.00
5988;BME280;3021;51.000;6.980;2022-09-20T10:18:26;68080.50;;;15.98;100.00
5988;BME280;3021;51.000;6.980;2022-09-20T10:21:14;68099.66;;;16.15;100.00
5988;BME280;3021;51.000;6.980;2022-09-20T10:24:11;68107.19;;;16.21;100.00
5988;BME280;3021;51.000;6.980;2022-09-20T10:27:05;68127.06;;;16.41;100.00
5988;BME280;3021;51.000;6.980;2022-09-20T10:29:41;68162.81;;;16.68;100.00
5988;BME280;3021;51.000;6.980;2022-09-20T10:37:46;68201.44;;;17.07;100.00
5988;BME280;3021;51.000;6.980;2022-09-20T10:40:35;68231.78;;;17.37;100.00
5988;BME280;3021;51.000;6.980;2022-09-20T10:46:01;68311.28;;;18.05;100.00
5988;BME280;3021;51.000;6.980;2022-09-20T10:48:32;68332.09;;;18.21;100.00
5988;BME280;3021;51.000;6.980;2022-09-20T10:51:08;68336.16;;;18.24;100.00
5988;BME280;3021;51.000;6.980;2022-09-20T10:53:58;68318.13;;;18.08;100.00
5988;BME280;3021;51.000;6.980;2022-09-20T10:56:35;68265.91;;;17.65;100.00
5988;BME280;3021;51.000;6.980;2022-09-20T11:02:05;68206.53;;;17.09;100.00
5988;BME280;3021;51.000;6.980;2022-09-20T11:07:50;68143.94;;;16.56;100.00
5988;BME280;3021;51.000;6.980;2022-09-20T11:10:24;68121.16;;;16.34;100.00
5988;BME280;3021;51.000;6.980;2022-09-20T11:12:57;68095.03;;;16.11;100.00
5988;BME280;3021;51.000;6.980;2022-09-20T11:15:30;68086.91;;;16.03;100.00
5988;BME280;3021;51.000;6.980;2022-09-20T11:20:46;68057.13;;;15.75;100.00
5988;BME280;3021;51.000;6.980;2022-09-20T11:23:21;68048.44;;;15.67;100.00
5988;BME280;3021;51.000;6.980;2022-09-20T11:25:53;68030.00;;;15.53;100.00
5988;BME280;3021;51.000;6.980;2022-09-20T11:28:44;68005.63;;;15.31;100.00
5988;BME280;3021;51.000;6.980;2022-09-20T11:33:50;67990.56;;;15.18;100.00
5988;BME280;3021;51.000;6.980;2022-09-20T11:36:29;67987.78;;;15.18;100.00
5988;BME280;3021;51.000;6.980;2022-09-20T11:39:02;67978.97;;;15.08;100.00
5988;BME280;3021;51.000;6.980;2022-09-20T11:41:30;67966.19;;;14.96;100.00
5988;BME280;3021;51.000;6.980;2022-09-20T11:44:06;67974.31;;;15.03;100.00
5988;BME280;3021;51.000;6.980;2022-09-20T11:47:01;67979.53;;;15.08;100.00
5988;BME280;3021;51.000;6.980;2022-09-20T11:57:44;68013.19;;;15.38;100.00
5988;BME280;3021;51.000;6.980;2022-09-20T12:00:11;68039.16;;;15.59;100.00
5988;BME280;3021;51.000;6.980;2022-09-20T12:02:43;68064.84;;;15.84;100.00
5988;BME280;3021;51.000;6.980;2022-09-20T12:05:38;68083.41;;;16.00;100.00
5988;BME280;3021;51.000;6.980;2022-09-20T12:08:32;68110.09;;;16.24;100.00
5988;BME280;3021;51.000;6.980;2022-09-20T12:11:03;68141.47;;;16.52;100.00
5988;BME280;3021;51.000;6.980;2022-09-20T12:13:33;68165.84;;;16.73;100.00
5988;BME280;3021;51.000;6.980;2022-09-20T12:16:06;68168.88;;;16.79;100.00
5988;BME280;3021;51.000;6.980;2022-09-20T12:18:37;68168.88;;;16.79;100.00
5988;BME280;3021;51.000;6.980;2022-09-20T12:21:17;68187.38;;;16.92;100.00
5988;BME280;3021;51.000;6.980;2022-09-20T12:26:51;68184.59;;;16.92;100.00
5988;BME280;3021;51.000;6.980;2022-09-20T12:29:00;68184.44;;;16.90;100.00
5988;BME280;3021;51.000;6.980;2022-09-20T12:34:03;68227.44;;;17.28;100.00
5988;BME280;3021;51.000;6.980;2022-09-20T12:36:31;68241.97;;;17.41;100.00
5988;BME280;3021;51.000;6.980;2022-09-20T12:41:27;68248.94;;;17.47;100.00
5988;BME280;3021;51.000;6.980;2022-09-20T12:46:55;68184.03;;;16.92;100.00
5988;BME280;3021;51.000;6.980;2022-09-20T12:52:46;68197.81;;;17.02;100.00
5988;BME280;3021;51.000;6.980;2022-09-20T12:58:36;68159.34;;;16.65;100.00
5988;BME280;3021;51.000;6.980;2022-09-20T13:03:41;68162.81;;;16.68;100.00
5988;BME280;3021;51.000;6.980;2022-09-20T13:14:01;68296.00;;;17.89;100.00
5988;BME280;3021;51.000;6.980;2022-09-20T13:16:56;68309.53;;;18.03;100.00
5988;BME280;3021;51.000;6.980;2022-09-20T13:19:26;68301.41;;;17.96;100.00
5988;BME280;3021;51.000;6.980;2022-09-20T13:24:25;68278.00;;;17.73;100.00
5988;BME280;3021;51.000;6.980;2022-09-20T13:26:53;68271.03;;;17.67;100.00
5988;BME280;3021;51.000;6.980;2022-09-20T13:29:40;68271.59;;;17.67;100.00
5988;BME280;3021;51.000;6.980;2022-09-20T13:32:25;68258.25;;;17.55;100.00
5988;BME280;3021;51.000;6.980;2022-09-20T13:37:30;68223.38;;;17.24;100.00
5988;BME280;3021;51.000;6.980;2022-09-20T13:39:59;68198.41;;;17.02;100.00
5988;BME280;3021;51.000;6.980;2022-09-20T13:42:27;68187.38;;;16.92;100.00
5988;BME280;3021;51.000;6.980;2022-09-20T13:44:54;68182.13;;;16.88;100.00
5988;BME280;3021;51.000;6.980;2022-09-20T13:49:51;68177.47;;;16.84;100.00
5988;BME280;3021;51.000;6.980;2022-09-20T13:52:27;68183.28;;;16.89;100.00
5988;BME280;3021;51.000;6.980;2022-09-20T13:54:53;68195.34;;;16.97;100.00
5988;BME280;3021;51.000;6.980;2022-09-20T13:57:29;68205.38;;;17.08;100.00
5988;BME280;3021;51.000;6.980;2022-09-20T13:59:54;68213.06;;;17.18;100.00
5988;BME280;3021;51.000;6.980;2022-09-20T14:02:26;68208.41;;;17.14;100.00
5988;BME280;3021;51.000;6.980;2022-09-20T14:04:54;68207.56;;;17.08;100.00
5988;BME280;3021;51.000;6.980;2022-09-20T14:07:21;68198.97;;;17.03;100.00
5988;BME280;3021;51.000;6.980;2022-09-20T14:09:52;68183.41;;;16.91;100.00
5988;BME280;3021;51.000;6.980;2022-09-20T14:12:19;68173.41;;;16.80;100.00
5988;BME280;3021;51.000;6.980;2022-09-20T14:14:45;68175.13;;;16.82;100.00
5988;BME280;3021;51.000;6.980;2022-09-20T14:17:12;68177.91;;;16.82;100.00
5988;BME280;3021;51.000;6.980;2022-09-20T14:19:41;68163.09;;;16.73;100.00
5988;BME280;3021;51.000;6.980;2022-09-20T14:22:16;68172.81;;;16.80;100.00
5988;BME280;3021;51.000;6.980;2022-09-20T14:27:24;68171.66;;;16.79;100.00
5988;BME280;3021;51.000;6.980;2022-09-20T14:29:53;68185.16;;;16.93;100.00
5988;BME280;3021;51.000;6.980;2022-09-20T14:32:22;68174.00;;;16.81;100.00
5988;BME280;3021;51.000;6.980;2022-09-20T14:37:44;68156.81;;;16.70;100.00
5988;BME280;3021;51.000;6.980;2022-09-20T14:42:50;68155.41;;;16.64;100.00
5988;BME280;3021;51.000;6.980;2022-09-20T14:45:22;68155.84;;;16.62;100.00
5988;BME280;3021;51.000;6.980;2022-09-20T14:50:28;68157.72;;;16.66;100.00
5988;BME280;3021;51.000;6.980;2022-09-20T14:55:36;68179.38;;;16.88;100.00
5988;BME280;3021;51.000;6.980;2022-09-20T14:58:13;68183.28;;;16.89;100.00
5988;BME280;3021;51.000;6.980;2022-09-20T15:00:48;68190.13;;;16.92;100.00
5988;BME280;3021;51.000;6.980;2022-09-20T15:03:16;68190.97;;;16.98;100.00
5988;BME280;3021;51.000;6.980;2022-09-20T15:05:47;68208.84;;;17.12;100.00
5988;BME280;3021;51.000;6.980;2022-09-20T15:08:13;68194.31;;;16.99;100.00
5988;BME280;3021;51.000;6.980;2022-09-20T15:10:39;68182.56;;;16.86;100.00
5988;BME280;3021;51.000;6.980;2022-09-20T15:13:08;68182.13;;;16.88;100.00
5988;BME280;3021;51.000;6.980;2022-09-20T15:15:33;68162.94;;;16.71;100.00
5988;BME280;3021;51.000;6.980;2022-09-20T15:17:59;68161.22;;;16.69;100.00
5988;BME280;3021;51.000;6.980;2022-09-20T15:20:24;68143.22;;;16.53;100.00
5988;BME280;3021;51.000;6.980;2022-09-20T15:22:50;68139.28;;;16.52;100.00
5988;BME280;3021;51.000;6.980;2022-09-20T15:25:17;68132.75;;;16.44;100.00
5988;BME280;3021;51.000;6.980;2022-09-20T15:27:44;68156.09;;;16.67;100.00
5988;BME280;3021;51.000;6.980;2022-09-20T15:30:17;68200.84;;;17.07;100.00
5988;BME280;3021;51.000;6.980;2022-09-20T15:32:44;68266.38;;;17.62;100.00
5988;BME280;3021;51.000;6.980;2022-09-20T15:35:11;68307.66;;;17.99;100.00
5988;BME280;3021;51.000;6.980;2022-09-20T15:37:38;68354.31;;;18.43;100.00
5988;BME280;3021;51.000;6.980;2022-09-20T15:40:05;68378.72;;;18.64;100.00
5988;BME280;3021;51.000;6.980;2022-09-20T15:42:30;68376.28;;;18.60;100.00
5988;BME280;3021;51.000;6.980;2022-09-20T15:44:56;68352.00;;;18.41;100.00
5988;BME280;3021;51.000;6.980;2022-09-20T15:47:21;68368.13;;;18.53;100.00
5988;BME280;3021;51.000;6.980;2022-09-20T15:49:50;68353.13;;;18.42;100.00
5988;BME280;3021;51.000;6.980;2022-09-20T15:52:16;68348.38;;;18.35;100.00
5988;BME280;3021;51.000;6.980;2022-09-20T15:54:43;68339.91;;;18.33;100.00
5988;BME280;3021;51.000;6.980;2022-09-20T15:57:08;68323.94;;;18.13;100.00
5988;BME280;3021;51.000;6.980;2022-09-20T15:59:33;68308.25;;;18.00;100.00
5988;BME280;3021;51.000;6.980;2022-09-20T16:01:59;68308.81;;;18.00;100.00
5988;BME280;3021;51.000;6.980;2022-09-20T16:04:25;68301.28;;;17.93;100.00
5988;BME280;3021;51.000;6.980;2022-09-20T16:06:53;68269.84;;;17.66;100.00
5988;BME280;3021;51.000;6.980;2022-09-20T16:09:18;68255.34;;;17.53;100.00
5988;BME280;3021;51.000;6.980;2022-09-20T16:11:45;68227.88;;;17.26;100.00
5988;BME280;3021;51.000;6.980;2022-09-20T16:14:11;68215.25;;;17.17;100.00
5988;BME280;3021;51.000;6.980;2022-09-20T16:16:36;68204.78;;;17.08;100.00
5988;BME280;3021;51.000;6.980;2022-09-20T16:19:02;68193.75;;;16.98;100.00
5988;BME280;3021;51.000;6.980;2022-09-20T16:21:46;68186.19;;;16.91;100.00
5988;BME280;3021;51.000;6.980;2022-09-20T16:24:14;68184.44;;;16.90;100.00
5988;BME280;3021;51.000;6.980;2022-09-20T16:26:40;68187.94;;;16.93;100.00
5988;BME280;3021;51.000;6.980;2022-09-20T16:29:05;68185.03;;;16.90;100.00
5988;BME280;3021;51.000;6.980;2022-09-20T16:34:27;68147.25;;;16.57;100.00
5988;BME280;3021;51.000;6.980;2022-09-20T16:36:59;68131.59;;;16.43;100.00
5988;BME280;3021;51.000;6.980;2022-09-20T16:39:26;68122.75;;;16.33;100.00
5988;BME280;3021;51.000;6.980;2022-09-20T16:41:54;68118.81;;;16.32;100.00
5988;BME280;3021;51.000;6.980;2022-09-20T16:44:21;68113.00;;;16.27;100.00
5988;BME280;3021;51.000;6.980;2022-09-20T16:46:47;68103.72;;;16.18;100.00
5988;BME280;3021;51.000;6.980;2022-09-20T16:49:12;68100.25;;;16.15;100.00
5988;BME280;3021;51.000;6.980;2022-09-20T16:51:40;68095.59;;;16.11;100.00
5988;BME280;3021;51.000;6.980;2022-09-20T16:54:09;68089.78;;;16.06;100.00
5988;BME280;3021;51.000;6.980;2022-09-20T16:56:36;68078.31;;;15.98;100.00
5988;BME280;3021;51.000;6.980;2022-09-20T16:59:04;68070.06;;;15.88;100.00
5988;BME280;3021;51.000;6.980;2022-09-20T17:01:30;68065.41;;;15.84;100.00
5988;BME280;3021;51.000;6.980;2022-09-20T17:03:56;68063.53;;;15.80;100.00
5988;BME280;3021;51.000;6.980;2022-09-20T17:06:24;68054.97;;;15.75;100.00
5988;BME280;3021;51.000;6.980;2022-09-20T17:08:52;68046.38;;;15.70;100.00
5988;BME280;3021;51.000;6.980;2022-09-20T17:11:21;68051.47;;;15.72;100.00
5988;BME280;3021;51.000;6.980;2022-09-20T17:13:48;68044.38;;;15.63;100.00
5988;BME280;3021;51.000;6.980;2022-09-20T17:16:20;68036.97;;;15.59;100.00
5988;BME280;3021;51.000;6.980;2022-09-20T17:18:49;68028.84;;;15.52;100.00
5988;BME280;3021;51.000;6.980;2022-09-20T17:21:16;68018.84;;;15.41;100.00
5988;BME280;3021;51.000;6.980;2022-09-20T17:23:44;68015.94;;;15.38;100.00
5988;BME280;3021;51.000;6.980;2022-09-20T17:28:39;68002.28;;;15.31;100.00
5988;BME280;3021;51.000;6.980;2022-09-20T17:31:06;67996.34;;;15.23;100.00
5988;BME280;3021;51.000;6.980;2022-09-20T17:33:33;67986.63;;;15.17;100.00
5988;BME280;3021;51.000;6.980;2022-09-20T17:36:00;67984.75;;;15.13;100.00
5988;BME280;3021;51.000;6.980;2022-09-20T17:38:27;67978.97;;;15.08;100.00
5988;BME280;3021;51.000;6.980;2022-09-20T17:41:05;67979.41;;;15.06;100.00
5988;BME280;3021;51.000;6.980;2022-09-20T17:43:33;67964.47;;;14.95;100.00
5988;BME280;3021;51.000;6.980;2022-09-20T17:46:12;67968.97;;;14.96;100.00
5988;BME280;3021;51.000;6.980;2022-09-20T17:48:39;67955.75;;;14.87;100.00
5988;BME280;3021;51.000;6.980;2022-09-20T17:51:06;67948.09;;;14.78;100.00
5988;BME280;3021;51.000;6.980;2022-09-20T17:53:33;67935.47;;;14.69;100.00
5988;BME280;3021;51.000;6.980;2022-09-20T17:56:00;67931.41;;;14.65;100.00
5988;BME280;3021;51.000;6.980;2022-09-20T17:58:26;67930.13;;;14.62;100.00
5988;BME280;3021;51.000;6.980;2022-09-20T18:00:52;67926.75;;;14.61;100.00
5988;BME280;3021;51.000;6.980;2022-09-20T18:03:21;67932.44;;;14.64;100.00
5988;BME280;3021;51.000;6.980;2022-09-20T18:05:48;67925.56;;;14.60;100.00
5988;BME280;3021;51.000;6.980;2022-09-20T18:08:14;67921.53;;;14.57;100.00
5988;BME280;3021;51.000;6.980;2022-09-20T18:10:40;67917.47;;;14.53;100.00
5988;BME280;3021;51.000;6.980;2022-09-20T18:13:06;67917.91;;;14.51;100.00
5988;BME280;3021;51.000;6.980;2022-09-20T18:15:31;67909.78;;;14.44;100.00
5988;BME280;3021;51.000;6.980;2022-09-20T18:17:57;67909.78;;;14.44;100.00
5988;BME280;3021;51.000;6.980;2022-09-20T18:20:23;67916.75;;;14.50;100.00
5988;BME280;3021;51.000;6.980;2022-09-20T18:22:48;67911.09;;;14.47;100.00
5988;BME280;3021;51.000;6.980;2022-09-20T18:25:13;67909.22;;;14.43;100.00
5988;BME280;3021;51.000;6.980;2022-09-20T18:27:39;67902.41;;;14.40;100.00
5988;BME280;3021;51.000;6.980;2022-09-20T18:30:05;67904.72;;;14.42;100.00
5988;BME280;3021;51.000;6.980;2022-09-20T18:32:30;67900.66;;;14.38;100.00